Terminal Aerodrome Forecast
Issued by NWS

Home | Current Version | Previous Version | Text Only | Print | Product List | Glossary On
Versions: 1 2 3 4 5 6 7 8 9 10 11 12 13 14
000
FTUS43 KDVN 241700
TAFBRL
TAF
KBRL 241734Z 2418/2518 17007KT P6SM SCT120
      TEMPO 2511/2513 5SM BR=

USA.gov is the U.S. government's official web portal to all federal, state and local government web resources and services.